Time;durP1;ratioP1;P1;durP2;ratioP2;P2;SDS_P1;SDS_P2;PMS_P1;PMS_P2;Temp;Humidity;BMP_temperature;BMP_pressure;BME280_temperature;BME280_humidity;BME280_pressure;Samples;Min_cycle;Max_cycle;Signal;HPM_P1;HPM_P2
2022/05/21 00:00:21;;;;;;;12.88;10.93;;;12.00;99.90;;;;;;5035091;28;20021;-59
2022/05/21 00:02:48;;;;;;;21.05;12.07;;;12.10;99.90;;;;;;5029606;28;20029;-59
2022/05/21 00:05:15;;;;;;;16.48;11.43;;;12.00;99.90;;;;;;5038417;28;20103;-59
2022/05/21 00:07:42;;;;;;;13.40;10.38;;;12.00;99.90;;;;;;5036382;28;20171;-59
2022/05/21 00:10:07;;;;;;;14.13;11.35;;;12.00;99.90;;;;;;5034775;28;20051;-59
2022/05/21 00:12:34;;;;;;;14.45;11.05;;;12.00;99.90;;;;;;5038787;28;20025;-60
2022/05/21 00:15:00;;;;;;;15.02;11.27;;;12.10;99.90;;;;;;5031057;28;20104;-59
2022/05/21 00:17:25;;;;;;;15.38;11.30;;;12.10;99.90;;;;;;5042498;28;20111;-59
2022/05/21 00:19:51;;;;;;;15.30;11.63;;;12.10;99.90;;;;;;5040776;28;20033;-59
2022/05/21 00:22:16;;;;;;;15.93;11.75;;;12.10;99.90;;;;;;5048585;28;20025;-59
2022/05/21 00:24:42;;;;;;;13.13;11.02;;;12.10;99.90;;;;;;5035873;28;20027;-60
2022/05/21 00:27:07;;;;;;;18.17;12.60;;;12.10;99.90;;;;;;5032990;28;20037;-59
2022/05/21 00:29:33;;;;;;;14.30;11.25;;;12.10;99.90;;;;;;5034518;28;20029;-59
2022/05/21 00:31:59;;;;;;;13.57;11.07;;;12.10;99.90;;;;;;5029027;28;20087;-59
2022/05/21 00:34:24;;;;;;;16.80;12.20;;;12.10;99.90;;;;;;5033978;28;20091;-59
2022/05/21 00:36:50;;;;;;;14.35;11.05;;;12.10;99.90;;;;;;5034411;28;20105;-59
2022/05/21 00:39:16;;;;;;;13.57;11.05;;;12.20;99.90;;;;;;5043813;28;20026;-59
2022/05/21 00:41:43;;;;;;;16.52;10.77;;;12.20;99.90;;;;;;5039999;28;20242;-59
2022/05/21 00:44:08;;;;;;;16.35;10.88;;;12.20;99.90;;;;;;5033203;28;20424;-59
2022/05/21 00:46:38;;;;;;;17.05;12.25;;;12.20;99.90;;;;;;5028934;28;20021;-59
2022/05/21 00:49:21;;;;;;;13.15;10.65;;;12.20;99.90;;;;;;5034160;28;20026;-59
2022/05/21 00:51:54;;;;;;;12.75;9.93;;;12.20;99.90;;;;;;5036568;28;20057;-59
2022/05/21 00:54:27;;;;;;;13.65;10.20;;;12.20;99.90;;;;;;5033545;28;20028;-59
2022/05/21 00:56:58;;;;;;;14.23;10.70;;;12.30;99.90;;;;;;5043827;28;20029;-60
2022/05/21 01:02:10;;;;;;;14.15;10.50;;;12.30;99.90;;;;;;5031502;28;20451;-59
2022/05/21 01:04:37;;;;;;;12.25;9.32;;;12.30;99.90;;;;;;5028488;28;20385;-59
2022/05/21 01:07:04;;;;;;;12.35;10.38;;;12.40;99.90;;;;;;5033175;28;20469;-59
2022/05/21 01:09:32;;;;;;;14.27;10.48;;;12.40;99.90;;;;;;5034261;28;20378;-59
2022/05/21 01:11:58;;;;;;;15.95;10.57;;;12.40;99.90;;;;;;5043583;28;20053;-59
2022/05/21 01:14:24;;;;;;;14.35;9.55;;;12.40;99.90;;;;;;5036590;28;20595;-59
2022/05/21 01:16:51;;;;;;;13.45;9.98;;;12.40;99.90;;;;;;5031033;28;20022;-59
2022/05/21 01:19:17;;;;;;;16.33;10.27;;;12.40;99.90;;;;;;5033931;28;20021;-60
2022/05/21 01:21:43;;;;;;;13.85;8.60;;;12.50;99.90;;;;;;5028514;28;20055;-59
2022/05/21 01:24:10;;;;;;;11.32;9.20;;;12.50;99.90;;;;;;5030816;28;20041;-59
2022/05/21 01:26:38;;;;;;;15.48;10.45;;;12.50;99.90;;;;;;5030691;28;20034;-59
2022/05/21 01:29:11;;;;;;;16.45;10.52;;;12.50;99.90;;;;;;5029036;28;20061;-59
2022/05/21 01:31:37;;;;;;;12.57;10.18;;;12.50;99.90;;;;;;5042476;28;20029;-59
2022/05/21 01:34:03;;;;;;;13.32;9.30;;;12.60;99.90;;;;;;5029901;28;20484;-59
2022/05/21 01:36:28;;;;;;;13.88;10.63;;;12.50;99.90;;;;;;5048369;28;20030;-59
2022/05/21 01:38:54;;;;;;;14.15;10.75;;;12.60;99.90;;;;;;5031672;28;20030;-59
2022/05/21 01:41:19;;;;;;;14.00;9.98;;;12.60;99.90;;;;;;5041090;28;20032;-59
2022/05/21 01:46:29;;;;;;;13.68;10.18;;;12.60;99.90;;;;;;5030982;28;20511;-59
2022/05/21 01:48:55;;;;;;;14.82;11.10;;;12.60;99.90;;;;;;5027651;28;20029;-59
2022/05/21 01:51:20;;;;;;;16.95;12.23;;;12.70;99.90;;;;;;5032580;28;20065;-59
2022/05/21 01:53:47;;;;;;;15.55;10.57;;;12.70;99.90;;;;;;5030823;28;20473;-59
2022/05/21 01:56:13;;;;;;;14.70;9.95;;;12.70;99.90;;;;;;5031027;28;20040;-59
2022/05/21 01:58:39;;;;;;;15.88;9.65;;;12.70;99.90;;;;;;5030748;28;20490;-59
2022/05/21 02:01:06;;;;;;;17.02;11.35;;;12.70;99.90;;;;;;5038535;28;20112;-59
2022/05/21 02:03:33;;;;;;;15.35;10.25;;;12.70;99.90;;;;;;5030897;28;20377;-59
2022/05/21 02:05:59;;;;;;;13.82;10.35;;;12.70;99.90;;;;;;5034853;28;20441;-59
2022/05/21 02:08:24;;;;;;;15.32;9.57;;;12.80;99.90;;;;;;5039426;28;20127;-59
2022/05/21 02:10:51;;;;;;;14.02;9.75;;;12.80;99.90;;;;;;5036664;28;20067;-59
2022/05/21 02:13:23;;;;;;;13.57;10.15;;;12.80;99.90;;;;;;5034545;28;20025;-59
2022/05/21 02:15:48;;;;;;;14.15;10.57;;;12.80;99.90;;;;;;5036985;28;20059;-59
2022/05/21 02:18:15;;;;;;;15.63;9.85;;;12.80;99.90;;;;;;5034950;28;20057;-59
2022/05/21 02:20:41;;;;;;;17.90;10.45;;;12.80;99.90;;;;;;5039130;28;20102;-59
2022/05/21 02:23:07;;;;;;;14.68;10.55;;;12.80;99.90;;;;;;5031395;28;20466;-59
2022/05/21 02:25:33;;;;;;;14.80;8.90;;;12.80;99.90;;;;;;5036430;28;20033;-59
2022/05/21 02:27:59;;;;;;;12.57;9.50;;;12.90;99.90;;;;;;5037427;28;20075;-59
2022/05/21 02:30:24;;;;;;;18.33;11.10;;;12.90;99.90;;;;;;5047593;28;20024;-60
2022/05/21 02:32:50;;;;;;;15.82;10.18;;;12.90;99.90;;;;;;5043004;28;20029;-59
2022/05/21 02:35:16;;;;;;;13.18;10.00;;;12.90;99.90;;;;;;5033060;28;20024;-59
2022/05/21 02:40:26;;;;;;;12.43;10.00;;;12.90;99.90;;;;;;5039463;28;20059;-60
2022/05/21 02:42:52;;;;;;;17.05;10.73;;;12.90;99.90;;;;;;5041054;28;20022;-59
2022/05/21 02:45:23;;;;;;;12.93;10.07;;;12.90;99.90;;;;;;5038800;28;20082;-59
2022/05/21 02:47:49;;;;;;;16.30;10.30;;;13.00;99.90;;;;;;5030847;28;20145;-59
2022/05/21 02:50:18;;;;;;;14.73;10.25;;;12.90;99.90;;;;;;5031663;28;20013;-59
2022/05/21 02:52:44;;;;;;;13.75;9.32;;;13.00;99.90;;;;;;5043047;28;20084;-60
2022/05/21 02:55:11;;;;;;;14.50;9.88;;;12.90;99.90;;;;;;5033204;28;20496;-59
2022/05/21 02:57:37;;;;;;;12.63;10.15;;;12.90;99.90;;;;;;5032038;28;20061;-59
2022/05/21 03:00:06;;;;;;;12.73;9.63;;;13.00;99.90;;;;;;5040672;28;20064;-60
2022/05/21 03:02:31;;;;;;;13.07;9.65;;;13.00;99.90;;;;;;5036276;28;20484;-59
2022/05/21 03:04:57;;;;;;;10.27;8.32;;;12.90;99.90;;;;;;5030527;28;20045;-60
2022/05/21 03:07:23;;;;;;;14.13;9.68;;;12.90;99.90;;;;;;5043271;28;20069;-60
2022/05/21 03:12:32;;;;;;;17.58;10.52;;;13.00;99.90;;;;;;5036319;28;20071;-59
2022/05/21 03:14:58;;;;;;;15.18;10.00;;;13.00;99.90;;;;;;5035325;28;20029;-59
2022/05/21 03:17:27;;;;;;;14.65;10.43;;;12.90;99.90;;;;;;5035676;28;20028;-59
2022/05/21 03:19:53;;;;;;;15.23;9.85;;;13.00;99.90;;;;;;5032854;28;20124;-59
2022/05/21 03:22:18;;;;;;;15.35;10.60;;;12.90;99.90;;;;;;5045468;28;20121;-60
2022/05/21 03:24:44;;;;;;;19.60;11.30;;;12.90;99.90;;;;;;5032799;28;20037;-60
2022/05/21 03:27:10;;;;;;;15.90;9.02;;;12.90;99.90;;;;;;5030855;28;20041;-59
2022/05/21 03:29:37;;;;;;;13.10;8.20;;;12.90;99.90;;;;;;5033738;28;20060;-59
2022/05/21 03:32:03;;;;;;;18.83;11.00;;;12.90;99.90;;;;;;5039895;28;20044;-59
2022/05/21 03:34:29;;;;;;;11.85;9.32;;;12.90;99.90;;;;;;5045696;28;20487;-60
2022/05/21 03:36:54;;;;;;;17.30;10.65;;;12.90;99.90;;;;;;5032123;28;20358;-59
2022/05/21 03:39:20;;;;;;;17.23;10.07;;;13.00;99.90;;;;;;5030328;28;20436;-59
2022/05/21 03:41:45;;;;;;;17.30;11.10;;;13.00;99.90;;;;;;5029647;28;20037;-59
2022/05/21 03:44:10;;;;;;;15.10;9.45;;;13.00;99.90;;;;;;5029527;28;20029;-59
2022/05/21 03:46:38;;;;;;;15.32;9.82;;;13.00;99.90;;;;;;5037971;28;20033;-59
2022/05/21 03:49:04;;;;;;;17.17;9.98;;;13.00;99.90;;;;;;5032311;28;20052;-59
2022/05/21 03:51:31;;;;;;;15.95;9.93;;;13.00;99.90;;;;;;5037654;28;20136;-59
2022/05/21 03:53:56;;;;;;;21.98;10.82;;;13.00;99.90;;;;;;5029702;28;20025;-59
2022/05/21 03:56:22;;;;;;;15.10;9.93;;;13.00;99.90;;;;;;5039432;28;20034;-59
2022/05/21 03:58:48;;;;;;;12.88;9.05;;;13.10;99.90;;;;;;5034752;28;20038;-59
2022/05/21 04:01:14;;;;;;;14.07;8.82;;;13.10;99.90;;;;;;5032156;28;20451;-59
2022/05/21 04:03:39;;;;;;;15.10;9.32;;;13.10;99.90;;;;;;5029416;28;20025;-59
2022/05/21 04:06:05;;;;;;;15.48;10.45;;;13.10;99.90;;;;;;5032072;28;20036;-59
2022/05/21 04:08:30;;;;;;;18.80;10.60;;;13.10;99.90;;;;;;5041592;28;20444;-59
2022/05/21 04:10:56;;;;;;;16.23;10.23;;;13.10;99.90;;;;;;5029290;28;20025;-60
2022/05/21 04:13:22;;;;;;;16.65;10.65;;;13.10;99.90;;;;;;5036208;28;20026;-59
2022/05/21 04:15:47;;;;;;;15.23;9.18;;;13.10;99.90;;;;;;5035923;28;20398;-59
2022/05/21 04:18:13;;;;;;;16.27;9.35;;;13.10;99.90;;;;;;5038776;28;20393;-59
2022/05/21 04:20:39;;;;;;;16.95;9.77;;;13.20;99.90;;;;;;5045405;28;20033;-59
2022/05/21 04:23:04;;;;;;;18.67;10.80;;;13.20;99.90;;;;;;5035991;28;20389;-59
2022/05/21 04:25:31;;;;;;;13.77;9.73;;;13.20;99.90;;;;;;5034353;28;20086;-59
2022/05/21 04:27:57;;;;;;;14.75;9.18;;;13.20;99.90;;;;;;5033517;28;20025;-59
2022/05/21 04:30:28;;;;;;;14.93;9.35;;;13.20;99.90;;;;;;5041035;28;20103;-59
2022/05/21 04:32:57;;;;;;;15.00;8.70;;;13.30;99.90;;;;;;5031702;28;20108;-59
2022/05/21 04:35:24;;;;;;;17.93;10.37;;;13.30;99.90;;;;;;5034302;28;20032;-59
2022/05/21 04:37:50;;;;;;;21.33;9.32;;;13.30;99.90;;;;;;5031793;28;20029;-59
2022/05/21 04:40:19;;;;;;;18.33;9.27;;;13.30;99.90;;;;;;5034911;28;20570;-59
2022/05/21 04:42:45;;;;;;;19.92;9.63;;;13.30;99.90;;;;;;5031451;28;20072;-59
2022/05/21 04:45:11;;;;;;;11.93;8.60;;;13.30;99.90;;;;;;5031287;28;20033;-59
2022/05/21 04:47:37;;;;;;;18.13;8.88;;;13.40;99.90;;;;;;5038243;28;20042;-59
2022/05/21 04:50:07;;;;;;;16.02;8.68;;;13.40;99.90;;;;;;5036107;28;20600;-64
2022/05/21 04:52:32;;;;;;;14.15;7.55;;;13.40;99.90;;;;;;5028435;28;20072;-59
2022/05/21 04:54:58;;;;;;;17.13;7.72;;;13.40;99.90;;;;;;5034131;28;20064;-59
2022/05/21 04:57:23;;;;;;;15.27;8.88;;;13.40;99.90;;;;;;5036814;28;20102;-60
2022/05/21 04:59:49;;;;;;;18.65;9.40;;;13.50;99.90;;;;;;5031734;28;20037;-59
2022/05/21 05:02:15;;;;;;;18.63;8.73;;;13.50;99.90;;;;;;5030822;28;20565;-59
2022/05/21 05:04:40;;;;;;;14.05;8.10;;;13.40;99.90;;;;;;5032579;28;20493;-59
2022/05/21 05:07:09;;;;;;;14.98;7.85;;;13.50;99.90;;;;;;5031323;28;20082;-59
2022/05/21 05:09:39;;;;;;;17.42;7.80;;;13.50;99.90;;;;;;5038479;28;20139;-59
2022/05/21 05:12:06;;;;;;;18.20;7.97;;;13.50;99.90;;;;;;5050288;28;20067;-59
2022/05/21 05:14:32;;;;;;;20.45;8.77;;;13.50;99.90;;;;;;5050832;28;20021;-59
2022/05/21 05:16:58;;;;;;;16.92;7.88;;;13.50;99.90;;;;;;5052061;28;20044;-60
2022/05/21 05:19:23;;;;;;;15.43;7.47;;;13.50;99.90;;;;;;5052047;28;20037;-59
2022/05/21 05:21:49;;;;;;;16.30;6.43;;;13.50;99.90;;;;;;5052303;28;20029;-60
2022/05/21 05:24:14;;;;;;;14.07;6.45;;;13.50;99.90;;;;;;5052121;28;20480;-60
2022/05/21 05:26:40;;;;;;;14.75;7.05;;;13.50;99.90;;;;;;5051005;28;20082;-59
2022/05/21 05:29:05;;;;;;;17.40;7.32;;;13.50;99.90;;;;;;5050465;28;20033;-60
2022/05/21 05:31:31;;;;;;;17.25;6.20;;;13.50;99.90;;;;;;5052320;28;20473;-60
2022/05/21 05:33:57;;;;;;;16.10;7.07;;;13.60;99.90;;;;;;5050492;28;20017;-60
2022/05/21 05:36:23;;;;;;;16.27;5.85;;;13.60;99.90;;;;;;5051957;28;20531;-60
2022/05/21 05:38:48;;;;;;;19.27;5.78;;;13.60;99.90;;;;;;5052173;28;20037;-60
2022/05/21 05:41:16;;;;;;;10.95;4.85;;;13.60;99.90;;;;;;5052034;28;20029;-59
2022/05/21 05:43:41;;;;;;;18.38;6.25;;;13.60;99.90;;;;;;5055766;28;20029;-60
2022/05/21 05:46:07;;;;;;;11.50;5.15;;;13.70;99.90;;;;;;5055854;28;20485;-60
2022/05/21 05:48:33;;;;;;;13.52;4.55;;;13.70;99.90;;;;;;5056097;28;20029;-60
2022/05/21 05:51:02;;;;;;;13.73;5.10;;;13.70;99.90;;;;;;5055646;28;20127;-59
2022/05/21 05:53:27;;;;;;;18.53;5.83;;;13.70;99.90;;;;;;5055983;28;20469;-59
2022/05/21 05:55:53;;;;;;;11.55;4.45;;;13.70;99.90;;;;;;5055566;28;20028;-60
2022/05/21 06:01:06;;;;;;;15.52;5.07;;;13.80;99.90;;;;;;5051352;28;20433;-59
2022/05/21 06:03:32;;;;;;;14.27;4.83;;;13.80;99.90;;;;;;5051330;28;20020;-59
2022/05/21 06:05:57;;;;;;;9.23;3.88;;;13.90;99.90;;;;;;5055464;28;20025;-59
2022/05/21 06:08:23;;;;;;;12.27;5.13;;;13.90;99.90;;;;;;5053923;28;20396;-60
2022/05/21 06:10:49;;;;;;;12.02;4.30;;;13.90;99.90;;;;;;5046762;28;20022;-59
2022/05/21 06:13:17;;;;;;;12.23;3.97;;;14.00;99.90;;;;;;5035585;28;20014;-59
2022/05/21 06:15:43;;;;;;;16.63;4.57;;;14.00;99.90;;;;;;5035253;28;20021;-60
2022/05/21 06:18:14;;;;;;;11.73;4.25;;;14.10;99.90;;;;;;5035456;28;20033;-60
2022/05/21 06:20:41;;;;;;;10.27;3.60;;;14.10;99.90;;;;;;5035452;28;20029;-60
2022/05/21 06:23:07;;;;;;;13.30;4.13;;;14.10;99.80;;;;;;5035404;28;20056;-60
2022/05/21 06:25:35;;;;;;;14.68;4.63;;;14.20;99.80;;;;;;5035507;28;20473;-59
2022/05/21 06:28:03;;;;;;;9.45;3.90;;;14.30;99.70;;;;;;5047381;28;20115;-60
2022/05/21 06:30:31;;;;;;;11.43;3.75;;;14.30;99.60;;;;;;5038614;28;20497;-60
2022/05/21 06:32:57;;;;;;;11.95;4.32;;;14.40;99.60;;;;;;5053296;28;20047;-59
2022/05/21 06:35:23;;;;;;;15.63;4.80;;;14.40;99.40;;;;;;5047604;28;20100;-60
2022/05/21 06:37:50;;;;;;;15.68;4.57;;;14.40;99.20;;;;;;5034915;28;20116;-60
2022/05/21 06:40:17;;;;;;;11.35;3.95;;;14.40;99.10;;;;;;5035274;28;20481;-60
2022/05/21 06:42:43;;;;;;;10.68;3.95;;;14.50;99.10;;;;;;5050256;28;20025;-60
2022/05/21 06:45:09;;;;;;;20.38;5.18;;;14.60;99.00;;;;;;5034726;28;20547;-60
2022/05/21 06:47:36;;;;;;;21.23;5.00;;;14.60;99.00;;;;;;5034829;28;20474;-59
2022/05/21 06:50:04;;;;;;;16.92;4.45;;;14.60;98.80;;;;;;5034368;28;20469;-60
2022/05/21 06:52:30;;;;;;;12.43;3.83;;;14.60;98.70;;;;;;5033746;28;20049;-60
2022/05/21 06:54:58;;;;;;;13.77;4.43;;;14.70;98.60;;;;;;5052036;28;20115;-60
2022/05/21 06:57:28;;;;;;;15.48;4.68;;;14.80;98.60;;;;;;5051183;28;20025;-60
2022/05/21 06:59:54;;;;;;;12.20;4.43;;;14.80;98.40;;;;;;5047399;28;20021;-60
2022/05/21 07:02:19;;;;;;;14.50;4.90;;;14.80;98.30;;;;;;5052555;28;20029;-60
2022/05/21 07:07:35;;;;;;;10.13;4.30;;;14.90;97.80;;;;;;5047269;28;20044;-60
2022/05/21 07:10:07;;;;;;;8.68;3.42;;;14.90;97.70;;;;;;5052869;28;20029;-60
2022/05/21 07:12:34;;;;;;;11.15;3.80;;;15.00;97.50;;;;;;5050899;28;20013;-60
2022/05/21 07:15:01;;;;;;;11.07;3.58;;;15.10;97.30;;;;;;5053022;28;20086;-60
2022/05/21 07:17:27;;;;;;;11.18;3.20;;;15.20;97.20;;;;;;5053656;28;20480;-60
2022/05/21 07:19:52;;;;;;;13.85;3.78;;;15.30;97.00;;;;;;5054107;28;20075;-60
2022/05/21 07:22:18;;;;;;;13.70;3.20;;;15.40;96.70;;;;;;5054035;28;20404;-60
2022/05/21 07:24:44;;;;;;;9.38;2.63;;;15.40;96.20;;;;;;5049828;28;20040;-60
2022/05/21 07:27:12;;;;;;;10.52;3.13;;;15.50;96.00;;;;;;5052728;28;20037;-60
2022/05/21 07:29:40;;;;;;;14.68;3.88;;;15.60;95.90;;;;;;5054371;28;20017;-60
2022/05/21 07:32:15;;;;;;;18.92;5.10;;;15.60;95.80;;;;;;5053861;28;20130;-60
2022/05/21 07:34:40;;;;;;;12.50;4.07;;;15.60;95.70;;;;;;5052594;28;20029;-60
2022/05/21 07:37:06;;;;;;;12.73;3.45;;;15.60;95.80;;;;;;5053397;28;20107;-60
2022/05/21 07:39:31;;;;;;;14.52;4.10;;;15.70;95.70;;;;;;5053877;28;20029;-60
2022/05/21 07:41:57;;;;;;;13.02;4.32;;;15.80;95.40;;;;;;5042917;28;20026;-60
2022/05/21 07:44:23;;;;;;;8.85;3.47;;;15.80;95.00;;;;;;5039480;28;20119;-60
2022/05/21 07:46:49;;;;;;;7.97;3.03;;;15.80;94.90;;;;;;5050924;28;20733;-60
2022/05/21 07:49:14;;;;;;;12.70;3.05;;;15.90;94.90;;;;;;5051487;28;20524;-60
2022/05/21 07:51:40;;;;;;;9.38;3.42;;;16.00;94.80;;;;;;5049082;28;20049;-60
2022/05/21 07:54:05;;;;;;;11.63;4.05;;;16.10;94.70;;;;;;5051869;28;20026;-60
2022/05/21 07:56:32;;;;;;;10.27;3.40;;;16.10;94.30;;;;;;5051707;28;20016;-60
2022/05/21 07:58:58;;;;;;;9.05;2.90;;;16.20;94.00;;;;;;5052007;28;20048;-60
2022/05/21 08:01:24;;;;;;;14.23;2.90;;;16.20;93.90;;;;;;5047707;28;20024;-60
2022/05/21 08:03:49;;;;;;;10.30;2.72;;;16.30;93.30;;;;;;5049194;28;20108;-60
2022/05/21 08:06:16;;;;;;;12.13;2.90;;;16.40;93.00;;;;;;5047595;28;20027;-60
2022/05/21 08:08:42;;;;;;;12.80;3.22;;;16.40;92.50;;;;;;5048249;28;20032;-59
2022/05/21 08:11:07;;;;;;;12.93;2.85;;;16.50;92.30;;;;;;5051548;28;20029;-59
2022/05/21 08:13:34;;;;;;;11.50;2.67;;;16.50;92.00;;;;;;5053031;28;20052;-59
2022/05/21 08:16:01;;;;;;;9.27;2.33;;;16.60;91.50;;;;;;5053053;28;20024;-59
2022/05/21 08:18:27;;;;;;;11.57;2.55;;;16.70;91.60;;;;;;5052594;28;20079;-59
2022/05/21 08:20:54;;;;;;;7.70;2.40;;;16.70;91.40;;;;;;5053049;28;20036;-59
2022/05/21 08:28:48;;;;;;;10.18;2.70;;;17.00;91.20;;;;;;5052941;28;20039;-59
2022/05/21 08:31:14;;;;;;;10.50;3.42;;;16.90;91.20;;;;;;5052994;28;20016;-59
2022/05/21 08:33:39;;;;;;;9.98;2.25;;;16.90;91.30;;;;;;5052753;28;20429;-59
2022/05/21 08:36:05;;;;;;;9.32;2.92;;;17.10;91.10;;;;;;5051371;28;20524;-59
2022/05/21 08:38:31;;;;;;;8.35;2.13;;;17.20;90.80;;;;;;5052698;28;20448;-59
2022/05/21 08:41:03;;;;;;;9.02;2.25;;;17.30;90.70;;;;;;5052737;28;20472;-59
2022/05/21 08:44:05;;;;;;;7.40;2.03;;;17.40;90.50;;;;;;5051400;28;20036;-59
2022/05/21 08:46:54;;;;;;;6.35;2.47;;;17.50;90.10;;;;;;5052740;28;20104;-59
2022/05/21 08:49:30;;;;;;;9.57;1.70;;;17.50;88.90;;;;;;5052515;28;20028;-59
2022/05/21 08:52:04;;;;;;;7.25;1.98;;;17.70;88.60;;;;;;5051219;28;20045;-59
2022/05/21 08:54:37;;;;;;;11.10;2.45;;;17.70;86.90;;;;;;5052742;28;20029;-59
2022/05/21 08:57:03;;;;;;;8.05;2.25;;;17.70;86.90;;;;;;5051348;28;20021;-59
2022/05/21 08:59:37;;;;;;;13.13;3.72;;;17.60;87.20;;;;;;5052545;28;20025;-59
2022/05/21 09:02:08;;;;;;;7.55;2.58;;;17.40;87.70;;;;;;5052440;28;20056;-59
2022/05/21 09:04:34;;;;;;;10.48;3.30;;;17.40;88.70;;;;;;5052301;28;20025;-59
2022/05/21 09:07:11;;;;;;;6.18;2.35;;;17.60;89.00;;;;;;5052391;28;20472;-59
2022/05/21 09:09:57;;;;;;;7.50;2.55;;;17.80;87.80;;;;;;5052411;28;20025;-59
2022/05/21 09:12:33;;;;;;;6.75;2.35;;;18.00;87.60;;;;;;5052478;28;20029;-59
2022/05/21 09:15:03;;;;;;;5.28;1.55;;;18.20;85.40;;;;;;5052234;28;20032;-59
2022/05/21 09:17:30;;;;;;;4.80;1.92;;;18.20;85.10;;;;;;5056277;28;20131;-59
2022/05/21 09:20:02;;;;;;;7.57;2.00;;;18.30;83.90;;;;;;5056327;28;20028;-59
2022/05/21 09:22:27;;;;;;;7.13;2.00;;;18.20;82.10;;;;;;5056408;28;20112;-59
2022/05/21 09:25:01;;;;;;;9.85;2.80;;;18.20;82.80;;;;;;5055037;28;20064;-59
2022/05/21 09:27:32;;;;;;;5.60;1.80;;;18.40;82.50;;;;;;5056249;28;20017;-59
2022/05/21 09:30:15;;;;;;;7.90;1.77;;;18.50;82.10;;;;;;5056308;28;20021;-59
2022/05/21 09:32:44;;;;;;;4.53;1.55;;;18.70;81.60;;;;;;5056017;28;20036;-59
2022/05/21 09:35:25;;;;;;;6.80;1.80;;;18.70;80.90;;;;;;5056222;28;20400;-59
2022/05/21 09:37:51;;;;;;;8.20;1.80;;;18.70;80.40;;;;;;5056086;28;20032;-59
2022/05/21 09:40:35;;;;;;;8.23;1.42;;;18.80;78.90;;;;;;5056205;28;20025;-59
2022/05/21 09:46:18;;;;;;;6.88;2.15;;;19.00;79.20;;;;;;5056192;28;20040;-59
2022/05/21 09:48:45;;;;;;;5.82;1.45;;;19.10;78.10;;;;;;5055808;28;20032;-59
2022/05/21 09:51:31;;;;;;;7.03;1.52;;;19.10;78.20;;;;;;5054610;28;20032;-59
2022/05/21 09:53:58;;;;;;;5.75;1.67;;;19.20;78.40;;;;;;5049668;28;20389;-59
2022/05/21 09:56:31;;;;;;;6.10;1.45;;;19.10;77.80;;;;;;5048821;28;20539;-59
2022/05/21 09:59:21;;;;;;;4.68;1.15;;;19.00;76.90;;;;;;5051077;28;20477;-60
2022/05/21 10:01:49;;;;;;;7.00;1.63;;;19.10;77.30;;;;;;5048172;28;20317;-59
2022/05/21 10:04:27;;;;;;;4.45;1.27;;;19.10;78.10;;;;;;5053929;28;20485;-59
2022/05/21 10:10:58;;;;;;;6.85;1.40;;;19.20;77.70;;;;;;5052049;28;20048;-59
2022/05/21 10:12:51;;;;;;;9.27;2.28;;;19.30;76.10;;;;;;5046051;28;20487;-59
2022/05/21 10:15:22;;;;;;;6.65;1.40;;;19.30;75.30;;;;;;5051252;28;20017;-59
2022/05/21 10:17:57;;;;;;;6.28;1.63;;;19.50;75.40;;;;;;5053551;28;20040;-59
2022/05/21 10:20:31;;;;;;;8.13;1.50;;;19.50;74.60;;;;;;5052512;28;20396;-59
2022/05/21 10:23:04;;;;;;;5.97;1.33;;;19.50;74.50;;;;;;5053661;28;20029;-59
2022/05/21 10:25:55;;;;;;;7.45;1.30;;;19.50;74.60;;;;;;5053781;28;20102;-59
2022/05/21 10:28:54;;;;;;;7.43;1.50;;;19.60;75.10;;;;;;5052607;28;20021;-59
2022/05/21 10:31:41;;;;;;;7.38;1.42;;;19.70;75.20;;;;;;5049900;28;20025;-59
2022/05/21 10:34:36;;;;;;;4.97;1.35;;;19.60;74.40;;;;;;5053255;28;20017;-59
2022/05/21 10:37:13;;;;;;;5.47;1.10;;;19.50;74.30;;;;;;5054729;28;20534;-60
2022/05/21 10:40:09;;;;;;;7.35;2.08;;;19.40;73.90;;;;;;5053345;28;20028;-59
2022/05/21 10:43:00;;;;;;;5.80;1.38;;;19.40;73.60;;;;;;5055174;28;20167;-59
2022/05/21 10:45:33;;;;;;;6.57;1.38;;;19.40;73.80;;;;;;5054811;28;20473;-59
2022/05/21 10:48:10;;;;;;;6.72;1.50;;;19.40;73.90;;;;;;5054773;28;20033;-59
2022/05/21 10:50:58;;;;;;;7.07;1.50;;;19.60;73.00;;;;;;5051629;28;20035;-59
2022/05/21 10:53:50;;;;;;;5.22;1.10;;;19.80;73.30;;;;;;5048455;28;20104;-59
2022/05/21 10:56:34;;;;;;;5.55;1.27;;;20.10;73.40;;;;;;5049769;28;20041;-59
2022/05/21 10:59:18;;;;;;;7.28;1.27;;;20.30;72.20;;;;;;5052251;28;20021;-59
2022/05/21 11:01:54;;;;;;;4.97;1.00;;;20.40;71.70;;;;;;5052820;28;20508;-59
2022/05/21 11:04:22;;;;;;;5.72;1.73;;;20.60;71.00;;;;;;5051626;28;20103;-59
2022/05/21 11:07:20;;;;;;;7.53;1.67;;;20.80;70.80;;;;;;5047353;28;20044;-59
2022/05/21 11:09:51;;;;;;;6.18;1.10;;;20.70;70.20;;;;;;5052414;28;20029;-60
2022/05/21 11:12:42;;;;;;;6.55;1.17;;;20.90;69.80;;;;;;5052804;28;20048;-59
2022/05/21 11:15:25;;;;;;;6.50;1.30;;;21.10;69.90;;;;;;5047206;28;20017;-59
2022/05/21 11:17:57;;;;;;;7.25;1.77;;;21.20;68.90;;;;;;5045882;28;20389;-59
2022/05/21 11:20:33;;;;;;;3.95;1.10;;;21.10;67.90;;;;;;5049861;28;20029;-59
2022/05/21 11:23:06;;;;;;;6.45;1.55;;;21.10;68.00;;;;;;5052429;28;20436;-60
2022/05/21 11:25:40;;;;;;;4.55;1.33;;;21.00;67.50;;;;;;5044957;28;20386;-59
2022/05/21 11:28:40;;;;;;;6.95;1.02;;;20.90;68.00;;;;;;5046849;28;20162;-59
2022/05/21 11:37:19;;;;;;;8.27;1.63;;;21.10;68.40;;;;;;5050827;28;20394;-59
2022/05/21 11:39:39;;;;;;;8.20;1.05;;;21.40;67.60;;;;;;5051061;28;20367;-59
2022/05/21 11:42:14;;;;;;;5.90;1.45;;;21.60;67.90;;;;;;5051997;28;20033;-60
2022/05/21 11:44:59;;;;;;;8.10;1.35;;;21.80;67.00;;;;;;5052145;28;20554;-59
2022/05/21 11:47:33;;;;;;;7.35;1.15;;;21.90;65.60;;;;;;5051587;28;20028;-59
2022/05/21 11:50:02;;;;;;;4.90;1.10;;;21.90;64.30;;;;;;5045298;28;20469;-59
2022/05/21 11:52:34;;;;;;;4.95;1.10;;;21.70;63.80;;;;;;5033502;28;20406;-59
2022/05/21 11:55:11;;;;;;;5.38;1.30;;;21.60;63.30;;;;;;5033469;28;20448;-59
2022/05/21 11:57:48;;;;;;;6.55;1.08;;;21.60;64.00;;;;;;5033686;28;20465;-59
2022/05/21 12:00:17;;;;;;;4.50;1.23;;;21.80;63.90;;;;;;5033492;28;20068;-60
2022/05/21 12:02:55;;;;;;;6.67;1.00;;;21.90;63.80;;;;;;5032038;28;20025;-59
2022/05/21 12:05:40;;;;;;;7.05;1.38;;;22.10;62.90;;;;;;5033091;28;20029;-59
2022/05/21 12:08:10;;;;;;;2.60;0.80;;;22.20;62.50;;;;;;5032370;28;20393;-60
2022/05/21 12:11:30;;;;;;;7.88;1.00;;;22.30;62.80;;;;;;5033340;28;20022;-60
2022/05/21 12:14:15;;;;;;;5.47;0.95;;;22.50;62.80;;;;;;5033179;28;20166;-60
2022/05/21 12:16:44;;;;;;;6.40;0.90;;;22.60;62.60;;;;;;5033227;28;20466;-60
2022/05/21 12:19:09;;;;;;;5.00;1.58;;;22.70;61.70;;;;;;5031860;28;20378;-59
2022/05/21 12:21:36;;;;;;;5.88;1.48;;;22.60;61.30;;;;;;5033198;28;20558;-60
2022/05/21 12:24:01;;;;;;;3.50;0.85;;;22.60;62.10;;;;;;5033130;28;20025;-60
2022/05/21 12:26:32;;;;;;;4.90;1.02;;;22.70;61.60;;;;;;5033109;28;20481;-59
2022/05/21 12:29:24;;;;;;;5.32;0.77;;;22.90;60.20;;;;;;5051471;28;20485;-60
2022/05/21 12:31:56;;;;;;;5.00;0.90;;;23.10;59.60;;;;;;5052813;28;20021;-60
2022/05/21 12:34:35;;;;;;;3.42;0.60;;;23.20;59.00;;;;;;5051690;28;20024;-60
2022/05/21 12:37:18;;;;;;;;;;;23.40;59.00;;;;;;5053194;28;20031;-60
2022/05/21 12:40:06;;;;;;;2.83;0.80;;;23.60;58.90;;;;;;5052645;28;20463;-60
2022/05/21 12:42:55;;;;;;;3.42;0.88;;;23.80;58.30;;;;;;5051589;28;20086;-60
2022/05/21 12:45:32;;;;;;;7.90;0.90;;;23.80;56.90;;;;;;5052975;28;20044;-59
2022/05/21 12:48:17;;;;;;;5.78;0.85;;;23.70;56.60;;;;;;5052642;28;20392;-60
2022/05/21 12:51:10;;;;;;;5.28;1.67;;;23.60;56.10;;;;;;5051948;28;20043;-60
2022/05/21 12:53:49;;;;;;;5.25;0.93;;;23.60;56.60;;;;;;5052579;28;20041;-60
2022/05/21 12:56:15;;;;;;;;;;;23.60;57.80;;;;;;5052974;28;20021;-60
2022/05/21 12:58:40;;;;;;;4.78;1.23;;;23.80;57.70;;;;;;5052530;28;19928;-60
2022/05/21 13:01:06;;;;;;;4.78;1.23;;;24.00;57.50;;;;;;5052530;28;20543;-60
2022/05/21 13:03:35;;;;;;;4.45;0.98;;;24.20;57.60;;;;;;5052766;28;20079;-60
2022/05/21 13:06:08;;;;;;;2.80;0.80;;;24.30;56.70;;;;;;5051128;28;20017;-60
2022/05/21 13:08:38;;;;;;;6.38;1.30;;;24.30;55.80;;;;;;5052305;28;20500;-59
2022/05/21 13:11:17;;;;;;;4.97;1.30;;;24.30;54.70;;;;;;5052517;28;20035;-60
2022/05/21 13:13:45;;;;;;;5.00;0.93;;;24.20;55.00;;;;;;5051030;28;20025;-60
2022/05/21 13:16:16;;;;;;;5.32;1.05;;;24.30;55.20;;;;;;5050687;28;20021;-60
2022/05/21 13:18:45;;;;;;;6.32;0.90;;;24.30;55.20;;;;;;5049595;28;20021;-59
2022/05/21 13:21:35;;;;;;;2.20;0.63;;;24.20;55.50;;;;;;5041127;28;20076;-60
2022/05/21 13:24:38;;;;;;;2.35;0.60;;;24.30;55.00;;;;;;5031087;28;20108;-60
2022/05/21 13:27:16;;;;;;;5.28;1.00;;;24.30;54.50;;;;;;5035136;28;20032;-60